OMFJ/FJR METAR and TAF weather

Enter ICAO airport designator
Station Type Date Time Source
OMFJ METAR 2021/09/24 03:00 UTC NOAA

OMFJ 240300Z 07003KT 7000 FEW020 32/27 Q1005 A2970


Station Type Date Time Source
OMFJ Decoded METAR 2021/09/24 03:00 UTC NOAA

Fujairah, United Arab Emirates (OMFJ) 25-06N 056-20E 28M
Sep 23, 2021 - 11:00 PM EDT / 2021.09.24 0300 UTC
Wind: from the ENE (070 degrees) at 3 MPH (3 KT):0
Visibility: 4 mile(s):0
Sky conditions: mostly clear
Temperature: 89 F (32 C)
Heat index: 105.6 F (40.9 C):1
Dew Point: 80 F (27 C)
Relative Humidity: 74%
Pressure (altimeter): 29.7 in. Hg (1005 hPa)
ob: OMFJ 240300Z 07003KT 7000 FEW020 32/27 Q1005 A2970
cycle: 3

Station Type Date Time Source
OMFJ TAF 2021/09/23 18:28 UTC NOAA

TAF OMFJ 231700Z 2318/2424 VRB03KT 8000 NSC
BECMG 2404/2406 09008KT FEW025
BECMG 2415/2417 VRB03KT NSC

Example: see airport list